Time;durP1;ratioP1;P1;durP2;ratioP2;P2;SDS_P1;SDS_P2;PMS_P1;PMS_P2;Temp;Humidity;BMP_temperature;BMP_pressure;BME280_temperature;BME280_humidity;BME280_pressure;Samples;Min_cycle;Max_cycle;Signal;HPM_P1;HPM_P2
2022/05/30 04:52:18;;;;;;;;;6.00;6.00;;;;;12.71;43.48;100786.84;5435482;23;45681;-54
2022/05/30 04:54:43;;;;;;;;;10.25;10.00;;;;;12.71;43.60;100795.63;4980236;28;45345;-54
2022/05/30 04:57:09;;;;;;;;;7.25;7.25;;;;;12.71;43.59;100792.97;4980155;28;45344;-51
2022/05/30 04:59:39;;;;;;;;;5.50;5.25;;;;;12.71;43.59;100792.13;4980126;28;46001;-53
2022/05/30 05:02:04;;;;;;;;;7.00;7.00;;;;;12.72;43.56;100788.59;4970071;28;45344;-52
2022/05/30 05:04:30;;;;;;;;;8.25;7.50;;;;;12.74;43.73;100781.50;4960533;28;45571;-53
2022/05/30 05:06:55;;;;;;;;;6.75;6.25;;;;;12.73;43.63;100779.75;4960371;28;45574;-53
2022/05/30 05:09:31;;;;;;;;;9.50;7.00;;;;;12.66;43.78;100771.13;4960617;28;45332;-53
2022/05/30 05:11:56;;;;;;;;;10.00;7.00;;;;;12.74;43.57;100800.84;4960430;28;45501;-53
2022/05/30 05:14:22;;;;;;;;;7.25;7.25;;;;;12.73;43.70;100800.84;4960468;28;45455;-53
2022/05/30 05:16:47;;;;;;;;;6.25;6.25;;;;;12.74;43.85;100800.84;4959620;28;45355;-53
2022/05/30 05:19:12;;;;;;;;;8.25;8.25;;;;;12.74;43.72;100803.47;4960399;28;46025;-52
2022/05/30 05:21:40;;;;;;;;;11.75;7.50;;;;;12.75;43.85;100806.97;4959913;28;45313;-49
2022/05/30 05:24:07;;;;;;;;;11.50;8.00;;;;;12.75;43.81;100801.69;4960483;28;45368;-48
2022/05/30 05:26:33;;;;;;;;;7.25;6.25;;;;;12.74;43.76;100800.84;4959980;28;45224;-52
2022/05/30 05:28:59;;;;;;;;;4.75;4.75;;;;;12.76;43.75;100799.00;4958831;28;48459;-56
2022/05/30 05:31:25;;;;;;;;;9.00;7.00;;;;;12.79;43.74;100798.06;4959905;28;45180;-52
2022/05/30 05:33:52;;;;;;;;;6.75;5.25;;;;;12.80;43.94;100805.97;4960461;28;45215;-54
2022/05/30 05:36:27;;;;;;;;;7.00;6.50;;;;;12.81;43.95;100799.78;4958962;28;45353;-55
2022/05/30 05:38:53;;;;;;;;;8.00;7.50;;;;;12.81;43.86;100797.13;4940520;28;45394;-51
2022/05/30 05:41:21;;;;;;;;;8.50;7.00;;;;;12.82;43.86;100812.06;4959856;28;45318;-52
2022/05/30 05:43:47;;;;;;;;;7.25;6.25;;;;;12.84;43.96;100812.03;4959854;28;45275;-50
2022/05/30 05:46:17;;;;;;;;;6.00;5.25;;;;;12.86;43.74;100819.94;4959544;28;45742;-49
2022/05/30 05:48:43;;;;;;;;;6.00;6.00;;;;;12.86;43.85;100809.38;4945336;28;45437;-52
2022/05/30 05:51:08;;;;;;;;;8.50;8.50;;;;;12.87;43.90;100811.09;4943365;28;45346;-52
2022/05/30 05:53:34;;;;;;;;;9.50;7.00;;;;;12.88;43.80;100811.06;4937074;28;45471;-53
2022/05/30 05:56:09;;;;;;;;;5.75;4.75;;;;;12.90;43.82;100817.16;4943730;28;45487;-49
2022/05/30 05:58:34;;;;;;;;;7.75;7.25;;;;;12.89;43.82;100815.41;4943490;28;45331;-58
2022/05/30 06:01:08;;;;;;;;;9.25;6.50;;;;;12.94;43.97;100823.25;4941951;28;45627;-53
2022/05/30 06:03:33;;;;;;;;;8.25;7.50;;;;;12.94;43.91;100817.97;4957039;28;45435;-57
2022/05/30 06:05:59;;;;;;;;;5.50;5.50;;;;;12.97;44.01;100820.56;4942788;28;45464;-53
2022/05/30 06:08:24;;;;;;;;;8.00;6.75;;;;;12.98;43.94;100825.78;4956919;28;45490;-54
2022/05/30 06:11:05;;;;;;;;;10.50;7.50;;;;;13.00;43.95;100834.53;4950578;28;45451;-52
2022/05/30 06:13:30;;;;;;;;;9.00;7.75;;;;;13.02;43.94;100821.31;4947176;28;45652;-51
2022/05/30 06:15:56;;;;;;;;;9.50;8.75;;;;;13.05;44.10;100825.66;4958067;28;45466;-51
2022/05/30 06:18:21;;;;;;;;;6.50;5.50;;;;;13.06;43.75;100824.75;4956016;28;45415;-50
2022/05/30 06:20:46;;;;;;;;;6.00;6.00;;;;;13.06;43.79;100817.69;4957009;28;45362;-47
2022/05/30 06:23:12;;;;;;;;;7.00;7.00;;;;;13.09;43.81;100820.25;4941782;28;45617;-53
2022/05/30 06:25:37;;;;;;;;;6.50;5.25;;;;;13.11;43.84;100820.22;4958237;28;45485;-51
2022/05/30 06:30:45;;;;;;;;;9.75;7.75;;;;;13.13;43.80;100811.38;5876319;23;46562;-55
2022/05/30 06:33:10;;;;;;;;;6.00;4.75;;;;;13.20;44.11;100827.91;4962085;28;45307;-52
2022/05/30 06:35:41;;;;;;;;;6.75;6.75;;;;;13.23;44.06;100827.84;4962607;28;45558;-53
2022/05/30 06:38:08;;;;;;;;;7.00;6.00;;;;;13.26;44.10;100835.69;4961665;28;47428;-52
2022/05/30 06:40:33;;;;;;;;;9.00;7.75;;;;;13.31;44.07;100832.94;4976816;28;45369;-54
2022/05/30 06:42:58;;;;;;;;;6.00;5.00;;;;;13.35;43.89;100833.75;4969093;28;45156;-53
2022/05/30 06:45:24;;;;;;;;;6.00;6.00;;;;;13.39;44.04;100832.78;4967222;28;45508;-53
2022/05/30 06:47:49;;;;;;;;;7.00;6.00;;;;;13.42;43.87;100837.97;4973243;28;45311;-51
2022/05/30 06:50:15;;;;;;;;;8.25;5.00;;;;;13.46;44.22;100837.03;4977404;28;45319;-51
2022/05/30 06:52:40;;;;;;;;;9.00;7.75;;;;;13.50;43.93;100836.03;4967881;28;45397;-51
2022/05/30 06:55:06;;;;;;;;;8.50;6.00;;;;;13.55;43.76;100835.94;4955681;28;45528;-49
2022/05/30 07:00:16;;;;;;;;;6.00;6.00;;;;;13.62;43.85;100842.75;4961730;28;45247;-53
2022/05/30 07:02:42;;;;;;;;;7.00;6.00;;;;;13.64;43.71;100833.91;4962004;28;45436;-51
2022/05/30 07:05:07;;;;;;;;;9.00;5.25;;;;;13.70;43.70;100824.97;4961746;28;45353;-52
2022/05/30 07:07:33;;;;;;;;;7.25;5.00;;;;;13.73;44.00;100822.22;4961464;28;45636;-51
2022/05/30 07:09:58;;;;;;;;;6.50;6.50;;;;;13.76;43.76;100819.53;4976919;28;45322;-50
2022/05/30 07:12:23;;;;;;;;;6.25;5.00;;;;;13.81;43.72;100822.03;4962023;28;45299;-48
2022/05/30 07:14:49;;;;;;;;;9.00;6.25;;;;;13.84;43.97;100815.81;4961723;28;45323;-50
2022/05/30 07:17:15;;;;;;;;;5.00;5.00;;;;;13.88;43.94;100822.75;4976604;28;45418;-51
2022/05/30 07:19:40;;;;;;;;;7.25;6.75;;;;;13.91;43.65;100823.53;4961612;28;45311;-53
2022/05/30 07:22:06;;;;;;;;;4.75;4.75;;;;;13.95;43.36;100829.63;4976700;28;45326;-52
2022/05/30 07:24:31;;;;;;;;;4.00;4.00;;;;;13.98;43.52;100832.16;4961674;28;45469;-53
2022/05/30 07:26:57;;;;;;;;;5.00;5.00;;;;;14.06;43.92;100834.59;4961793;28;46005;-52
2022/05/30 07:29:22;;;;;;;;;5.75;5.00;;;;;14.09;43.58;100830.09;4961616;28;45418;-50
2022/05/30 07:31:47;;;;;;;;;9.00;5.75;;;;;14.15;43.63;100826.44;4961716;28;45340;-53
2022/05/30 07:34:13;;;;;;;;;5.00;5.00;;;;;14.19;43.74;100832.47;4961675;28;45576;-49
2022/05/30 07:36:38;;;;;;;;;7.25;7.00;;;;;14.21;43.93;100828.88;4961526;28;45401;-52
2022/05/30 07:39:04;;;;;;;;;5.25;5.00;;;;;14.21;43.62;100823.59;4948417;28;45240;-51
2022/05/30 07:41:30;;;;;;;;;6.75;5.00;;;;;14.29;43.02;100824.25;4961657;28;45168;-51
2022/05/30 07:43:56;;;;;;;;;6.50;4.50;;;;;14.35;43.31;100819.69;4961534;28;45160;-53
2022/05/30 07:46:22;;;;;;;;;6.25;5.00;;;;;14.40;43.48;100823.94;4961401;28;45314;-53
2022/05/30 07:48:48;;;;;;;;;7.25;4.75;;;;;14.41;43.71;100811.59;4961202;28;46116;-49
2022/05/30 07:51:14;;;;;;;;;8.50;5.00;;;;;14.48;43.64;100813.16;4961595;28;45469;-53
2022/05/30 07:53:41;;;;;;;;;5.25;3.50;;;;;14.50;43.18;100821.88;4961316;28;45275;-53
2022/05/30 07:56:10;;;;;;;;;4.75;4.75;;;;;14.56;43.43;100812.91;4961844;28;45386;-52
2022/05/30 07:58:36;;;;;;;;;3.50;3.50;;;;;14.60;43.48;100817.19;4972502;28;45809;-48
2022/05/30 08:01:03;;;;;;;;;4.25;4.25;;;;;14.65;42.82;100819.75;4979551;28;45239;-53
2022/05/30 08:03:28;;;;;;;;;5.25;4.25;;;;;14.68;43.23;100819.63;4980488;28;45562;-51
2022/05/30 08:06:15;;;;;;;;;5.50;3.00;;;;;14.71;42.92;100809.00;4980308;28;45408;-53
2022/05/30 08:08:42;;;;;;;;;6.00;5.00;;;;;14.77;43.38;100825.53;4980539;28;45416;-51
2022/05/30 08:11:08;;;;;;;;;5.25;3.00;;;;;14.82;42.89;100821.88;4978711;28;45298;-52
2022/05/30 08:13:33;;;;;;;;;1.75;1.50;;;;;14.87;42.77;100820.81;4980469;28;45519;-52
2022/05/30 08:15:59;;;;;;;;;4.75;4.75;;;;;14.91;42.78;100819.81;4980434;28;46252;-53
2022/05/30 08:18:26;;;;;;;;;2.75;2.75;;;;;14.98;42.54;100824.91;4980509;28;45240;-49
2022/05/30 08:20:51;;;;;;;;;2.75;2.00;;;;;15.03;42.72;100815.03;4980196;28;45600;-50
2022/05/30 08:23:20;;;;;;;;;4.00;3.75;;;;;15.05;42.78;100815.88;4980584;28;45279;-50
2022/05/30 08:25:47;;;;;;;;;5.00;4.00;;;;;15.10;42.71;100809.50;4979968;28;46337;-50
2022/05/30 08:28:13;;;;;;;;;5.75;3.75;;;;;15.17;42.20;100812.84;4980516;28;45324;-52
2022/05/30 08:30:38;;;;;;;;;3.25;3.25;;;;;15.21;42.64;100814.47;4980061;28;45495;-54
2022/05/30 08:33:13;;;;;;;;;1.75;1.75;;;;;15.26;42.65;100809.88;4980523;28;45356;-52
2022/05/30 08:35:38;;;;;;;;;3.00;3.00;;;;;15.32;42.40;100810.59;4980111;28;46218;-51
2022/05/30 08:38:04;;;;;;;;;3.75;3.75;;;;;15.36;42.30;100812.25;4962717;28;45476;-52
2022/05/30 08:43:34;;;;;;;;;4.00;4.00;;;;;15.47;42.31;100806.56;4950547;28;45266;-52
2022/05/30 08:46:39;;;;;;;;;3.50;3.50;;;;;15.51;42.04;100798.50;4959002;28;46153;-51
2022/05/30 08:49:22;;;;;;;;;4.75;2.75;;;;;15.55;42.21;100799.25;4960596;28;45460;-53
2022/05/30 08:52:13;;;;;;;;;2.75;2.75;;;;;15.59;41.79;100790.28;4960617;28;45352;-50
2022/05/30 08:54:41;;;;;;;;;3.25;2.75;;;;;15.65;41.69;100795.38;4950842;28;45374;-51
2022/05/30 08:57:15;;;;;;;;;3.00;3.00;;;;;15.69;41.83;100796.13;4956371;28;46313;-51
2022/05/30 09:00:00;;;;;;;;;7.50;5.75;;;;;15.73;41.67;100803.03;4959260;28;45546;-51
2022/05/30 09:02:58;;;;;;;;;4.00;3.00;;;;;15.78;41.99;100801.09;4967625;28;45258;-51
2022/05/30 09:05:31;;;;;;;;;4.25;4.25;;;;;15.87;41.76;100802.59;4963873;28;45372;-52
2022/05/30 09:08:03;;;;;;;;;2.50;2.50;;;;;15.93;41.51;100805.03;4979107;28;45330;-51
2022/05/30 09:10:32;;;;;;;;;3.25;2.00;;;;;15.99;41.74;100814.56;4979804;28;45426;-53
2022/05/30 09:13:05;;;;;;;;;2.25;2.00;;;;;16.06;41.55;100811.63;4979700;28;45401;-50
2022/05/30 09:15:35;;;;;;;;;2.00;2.00;;;;;16.12;41.08;100813.19;4971075;28;45402;-51
2022/05/30 09:18:03;;;;;;;;;3.00;2.25;;;;;16.20;41.33;100815.53;4975828;28;46733;-53
2022/05/30 09:20:31;;;;;;;;;4.75;3.00;;;;;16.25;41.25;100803.88;4979864;28;45369;-51
2022/05/30 09:22:56;;;;;;;;;3.75;3.25;;;;;16.30;41.05;100794.88;4981492;28;45410;-51
2022/05/30 09:28:11;;;;;;;;;4.75;4.00;;;;;16.42;41.05;100789.97;4983265;28;45694;-51
2022/05/30 09:30:57;;;;;;;;;4.00;3.00;;;;;16.50;40.71;100796.78;4982432;28;45263;-52
2022/05/30 09:33:42;;;;;;;;;3.00;3.00;;;;;16.57;40.77;100788.50;4983185;28;45474;-49
2022/05/30 09:36:33;;;;;;;;;2.50;2.50;;;;;16.65;41.08;100788.22;4982382;28;45556;-53
2022/05/30 09:39:16;;;;;;;;;1.00;1.00;;;;;16.72;40.88;100778.25;4960095;28;46221;-47
2022/05/30 09:41:42;;;;;;;;;3.00;3.00;;;;;16.82;40.53;100773.44;4978335;28;45337;-52
2022/05/30 09:44:22;;;;;;;;;5.00;3.50;;;;;16.92;40.43;100779.25;4963360;28;45315;-51
2022/05/30 09:47:13;;;;;;;;;4.00;3.00;;;;;17.03;40.36;100777.03;4961932;28;45918;-50
2022/05/30 09:49:42;;;;;;;;;2.25;2.25;;;;;17.10;40.31;100767.91;4952475;28;45310;-50
2022/05/30 09:52:34;;;;;;;;;4.00;3.25;;;;;17.25;40.44;100770.88;4961695;28;45351;-49
2022/05/30 09:55:18;;;;;;;;;3.75;3.00;;;;;17.31;40.38;100773.28;4960770;28;45239;-48
2022/05/30 09:57:43;;;;;;;;;1.75;1.25;;;;;17.40;40.27;100770.22;4958282;28;45297;-50
2022/05/30 10:00:16;;;;;;;;;4.75;3.25;;;;;17.50;40.03;100770.69;4962792;28;46261;-51
2022/05/30 10:02:45;;;;;;;;;3.00;2.75;;;;;17.62;39.89;100775.50;4962935;28;45352;-52
2022/05/30 10:05:13;;;;;;;;;3.00;3.00;;;;;17.75;40.05;100764.28;4963088;28;45273;-50
2022/05/30 10:07:51;;;;;;;;;2.75;2.75;;;;;17.84;39.72;100764.75;4977753;28;45503;-51
2022/05/30 10:10:22;;;;;;;;;6.00;3.75;;;;;18.00;39.48;100769.44;4961278;28;47046;-50
2022/05/30 10:13:00;;;;;;;;;3.00;3.00;;;;;18.14;39.44;100755.53;4962841;28;45316;-48
2022/05/30 10:15:25;;;;;;;;;4.00;4.00;;;;;18.26;39.31;100767.38;4951564;28;45477;-50
2022/05/30 10:17:53;;;;;;;;;4.50;3.25;;;;;18.42;39.29;100767.53;4962638;28;45341;-49
2022/05/30 10:20:38;;;;;;;;;2.00;2.00;;;;;18.53;39.43;100759.94;4962912;28;45700;-51
2022/05/30 10:29:40;;;;;;;;;3.00;3.00;;;;;19.13;39.40;100754.41;4962542;28;45342;-48
2022/05/30 10:32:17;;;;;;;;;4.75;4.00;;;;;19.46;39.41;100758.94;4977109;28;45958;-47
2022/05/30 10:34:55;;;;;;;;;1.75;1.75;;;;;19.83;39.58;100763.34;4947952;28;45322;-47
2022/05/30 10:37:50;;;;;;;;;6.25;6.25;;;;;20.21;39.61;100761.28;4961690;28;45588;-50
2022/05/30 10:40:47;;;;;;;;;17.25;15.75;;;;;20.75;39.60;100760.16;4953712;28;45234;-54
2022/05/30 10:43:20;;;;;;;;;9.75;7.00;;;;;21.19;39.69;100759.38;4947397;28;48202;-52
2022/05/30 10:45:53;;;;;;;;;2.00;2.00;;;;;21.71;39.31;100758.13;4962140;28;45313;-49
2022/05/30 10:48:59;;;;;;;;;5.00;4.00;;;;;22.28;39.03;100760.94;4962525;28;45485;-51
2022/05/30 10:51:31;;;;;;;;;2.00;2.00;;;;;22.84;39.05;100763.59;4952150;28;45319;-54
2022/05/30 10:54:16;;;;;;;;;3.00;3.00;;;;;23.36;38.96;100760.16;4962026;28;46227;-52
2022/05/30 10:56:49;;;;;;;;;1.50;1.50;;;;;23.84;38.79;100764.09;4958500;28;45403;-50
2022/05/30 10:59:40;;;;;;;;;2.00;2.00;;;;;24.36;38.38;100769.44;4962462;28;45476;-51
2022/05/30 11:02:18;;;;;;;;;2.25;2.25;;;;;24.84;38.60;100764.16;4977009;28;45344;-53
2022/05/30 11:04:55;;;;;;;;;3.00;3.00;;;;;25.35;38.23;100762.19;4960725;28;48582;-51
2022/05/30 11:07:36;;;;;;;;;1.50;1.50;;;;;25.84;38.15;100760.25;4961922;28;45303;-55
2022/05/30 11:10:17;;;;;;;;;2.00;2.00;;;;;26.31;37.42;100762.84;4976924;28;45256;-52
2022/05/30 11:12:47;;;;;;;;;3.00;3.00;;;;;26.76;37.39;100768.19;4962064;28;45346;-52
2022/05/30 11:15:23;;;;;;;;;2.00;2.00;;;;;27.18;36.91;100765.63;4961869;28;46140;-53
2022/05/30 11:18:01;;;;;;;;;2.25;2.00;;;;;27.55;37.13;100765.19;4961859;28;45437;-52
2022/05/30 11:20:34;;;;;;;;;2.75;2.75;;;;;27.77;36.37;100767.88;4961771;28;45314;-53
2022/05/30 11:23:01;;;;;;;;;3.50;2.00;;;;;27.85;35.72;100760.84;4961749;28;45323;-54
2022/05/30 11:26:03;;;;;;;;;2.00;2.00;;;;;27.85;35.57;100771.63;4961695;28;45369;-50
2022/05/30 11:28:57;;;;;;;;;2.00;2.00;;;;;27.77;35.46;100771.44;4941151;28;45552;-51
2022/05/30 11:31:36;;;;;;;;;2.00;2.00;;;;;27.61;35.07;100752.16;4948784;28;45212;-47
2022/05/30 11:34:30;;;;;;;;;3.00;2.00;;;;;27.43;34.58;100766.25;4961512;28;45338;-49
2022/05/30 11:37:07;;;;;;;;;2.50;1.50;;;;;27.30;33.70;100763.72;4961120;28;46427;-49
2022/05/30 11:40:04;;;;;;;;;1.75;1.75;;;;;27.32;33.81;100760.88;4947131;28;45354;-51
2022/05/30 11:42:40;;;;;;;;;3.75;3.75;;;;;27.47;34.20;100758.75;4956649;28;45169;-52
2022/05/30 11:45:29;;;;;;;;;4.25;2.25;;;;;27.76;34.25;100763.47;4959111;28;45366;-52
2022/05/30 11:47:59;;;;;;;;;2.50;2.50;;;;;28.07;33.52;100758.97;4938620;28;47170;-51
2022/05/30 11:50:31;;;;;;;;;1.75;1.25;;;;;28.45;34.00;100762.81;4961097;28;45192;-52
2022/05/30 11:53:09;;;;;;;;;2.75;2.75;;;;;28.84;33.68;100759.34;4961537;28;45365;-53
2022/05/30 11:55:43;;;;;;;;;1.00;1.00;;;;;29.13;34.15;100748.56;4960840;28;45577;-51
2022/05/30 11:58:29;;;;;;;;;4.00;2.25;;;;;29.33;33.15;100751.28;4959582;28;47978;-51
2022/05/30 12:00:57;;;;;;;;;2.00;2.00;;;;;29.47;33.06;100749.97;4961222;28;45228;-52
2022/05/30 12:03:52;;;;;;;;;2.00;2.00;;;;;29.54;32.49;100740.28;4961054;28;45316;-49
2022/05/30 12:06:32;;;;;;;;;2.00;2.00;;;;;29.57;32.18;100745.41;4960944;28;45260;-53
2022/05/30 12:09:12;;;;;;;;;2.75;1.50;;;;;29.51;31.93;100743.28;4949447;28;46021;-53
2022/05/30 12:11:55;;;;;;;;;1.25;1.25;;;;;29.34;31.52;100737.59;4960840;28;45229;-52
2022/05/30 12:14:26;;;;;;;;;2.00;1.50;;;;;29.11;31.71;100742.44;4961261;28;45192;-51
2022/05/30 12:17:10;;;;;;;;;2.25;2.25;;;;;28.89;31.08;100743.56;4946982;28;45353;-48
2022/05/30 12:25:35;;;;;;;;;2.25;2.25;;;;;28.31;30.76;100744.28;4949814;28;45386;-50
2022/05/30 12:28:06;;;;;;;;;1.00;1.00;;;;;28.15;30.42;100732.16;4960765;28;45335;-52
2022/05/30 12:30:35;;;;;;;;;1.00;1.00;;;;;28.02;30.59;100736.91;4959363;28;45414;-50
2022/05/30 12:33:01;;;;;;;;;2.50;2.00;;;;;27.83;30.11;100733.09;4947940;28;45337;-49
2022/05/30 12:35:31;;;;;;;;;5.50;1.75;;;;;27.64;30.05;100738.41;4960353;28;45423;-51
2022/05/30 12:38:13;;;;;;;;;2.00;2.00;;;;;27.41;30.60;100738.56;4955266;28;45474;-49
2022/05/30 12:40:42;;;;;;;;;3.50;3.50;;;;;27.19;29.85;100732.25;4953504;28;47749;-51
2022/05/30 12:43:23;;;;;;;;;1.25;0.25;;;;;26.92;29.66;100727.38;4960821;28;45303;-51
2022/05/30 12:45:54;;;;;;;;;3.25;2.50;;;;;26.71;30.29;100738.06;4960417;28;45337;-52
2022/05/30 12:48:22;;;;;;;;;1.50;1.50;;;;;26.50;29.66;100740.66;4960603;28;45679;-50
2022/05/30 12:50:51;;;;;;;;;2.00;2.00;;;;;26.30;29.63;100734.22;4960019;28;45433;-51
2022/05/30 12:53:18;;;;;;;;;3.00;1.25;;;;;26.08;29.65;100728.72;4960533;28;45235;-51
2022/05/30 12:55:47;;;;;;;;;1.00;1.00;;;;;25.94;30.22;100731.63;4975346;28;45441;-49
2022/05/30 12:58:42;;;;;;;;;2.00;2.00;;;;;25.77;30.17;100730.25;4957989;28;45517;-52
2022/05/30 13:01:21;;;;;;;;;2.00;2.00;;;;;25.63;29.80;100726.84;4963585;28;45255;-53
2022/05/30 13:04:06;;;;;;;;;2.75;2.00;;;;;25.46;29.92;100725.44;4962426;28;45879;-53
2022/05/30 13:06:31;;;;;;;;;2.00;2.00;;;;;25.36;30.20;100723.53;4963523;28;45331;-53
2022/05/30 13:09:03;;;;;;;;;1.75;1.75;;;;;25.24;29.61;100718.13;4962475;28;45537;-53
2022/05/30 13:11:42;;;;;;;;;3.50;3.50;;;;;25.13;30.19;100718.09;4963758;28;45384;-51
2022/05/30 13:14:15;;;;;;;;;2.75;2.75;;;;;25.03;29.49;100714.41;4963580;28;45335;-52
2022/05/30 13:16:43;;;;;;;;;3.00;3.00;;;;;24.92;29.60;100708.00;4963504;28;45268;-51
2022/05/30 13:19:12;;;;;;;;;6.00;6.00;;;;;24.88;30.30;100717.28;4963588;28;45310;-51
2022/05/30 13:21:42;;;;;;;;;8.50;5.75;;;;;24.82;29.62;100707.84;4961497;28;45425;-52
2022/05/30 13:24:26;;;;;;;;;2.00;2.00;;;;;24.88;29.86;100708.34;4963315;28;45346;-53
2022/05/30 13:26:52;;;;;;;;;2.25;2.25;;;;;25.07;29.82;100718.56;4963514;28;45227;-52
2022/05/30 13:29:17;;;;;;;;;5.25;3.00;;;;;25.41;29.26;100711.50;4962019;28;45408;-50
2022/05/30 13:31:48;;;;;;;;;2.00;2.00;;;;;25.85;29.61;100710.81;4963006;28;46018;-51
2022/05/30 13:34:21;;;;;;;;;3.00;2.50;;;;;26.24;29.32;100709.50;4963387;28;45411;-51
2022/05/30 13:36:48;;;;;;;;;3.00;3.00;;;;;26.54;29.48;100707.09;4963245;28;45336;-50
2022/05/30 13:39:14;;;;;;;;;4.75;4.00;;;;;26.68;30.01;100705.94;4950158;28;45357;-52
2022/05/30 13:41:40;;;;;;;;;5.50;5.50;;;;;26.73;29.91;100704.63;4962619;28;46050;-51
2022/05/30 13:44:12;;;;;;;;;4.25;3.00;;;;;26.77;30.11;100700.69;4963191;28;45302;-52
2022/05/30 13:46:42;;;;;;;;;2.00;2.00;;;;;26.76;29.33;100700.81;4978181;28;45358;-51
2022/05/30 13:49:08;;;;;;;;;2.75;2.50;;;;;26.70;29.25;100698.59;4962965;28;45476;-53
2022/05/30 13:51:37;;;;;;;;;2.00;2.00;;;;;26.57;29.42;100707.69;4962910;28;46096;-50
2022/05/30 13:54:06;;;;;;;;;3.00;2.00;;;;;26.44;29.29;100701.63;4963110;28;45286;-53
2022/05/30 13:56:33;;;;;;;;;2.75;2.00;;;;;26.33;29.77;100701.66;4960040;28;45314;-50
2022/05/30 13:59:01;;;;;;;;;4.00;2.25;;;;;26.18;29.65;100699.22;4962018;28;45596;-49
2022/05/30 14:01:33;;;;;;;;;3.00;1.00;;;;;26.03;29.05;100692.34;4962821;28;46349;-50
2022/05/30 14:04:08;;;;;;;;;2.00;2.00;;;;;25.91;29.55;100700.44;4963049;28;45481;-48
2022/05/30 14:06:34;;;;;;;;;2.75;2.75;;;;;25.79;28.89;100693.34;4977511;28;45318;-52
2022/05/30 14:09:04;;;;;;;;;2.50;2.50;;;;;25.68;29.28;100690.63;4976878;28;45538;-52
2022/05/30 14:11:36;;;;;;;;;2.00;2.00;;;;;25.58;29.36;100685.13;4962652;28;46072;-52
2022/05/30 14:14:03;;;;;;;;;2.50;2.25;;;;;25.50;29.43;100691.09;4962940;28;45338;-47
2022/05/30 14:16:34;;;;;;;;;2.00;2.00;;;;;25.40;28.99;100684.75;4962806;28;45322;-52
2022/05/30 14:19:05;;;;;;;;;1.00;1.00;;;;;25.30;29.20;100690.78;4962831;28;45319;-52
2022/05/30 14:21:34;;;;;;;;;2.25;2.00;;;;;25.21;29.13;100688.81;4962203;28;45245;-51
2022/05/30 14:24:25;;;;;;;;;2.00;2.00;;;;;25.13;29.07;100683.16;4962627;28;45458;-53
2022/05/30 14:26:48;;;;;;;;;2.50;2.25;;;;;25.07;28.36;100675.56;4952112;28;45385;-50
2022/05/30 14:29:39;;;;;;;;;2.50;2.50;;;;;25.22;28.76;100679.78;4962469;28;45342;-52
2022/05/30 14:32:27;;;;;;;;;2.00;2.00;;;;;25.54;28.44;100673.75;4962398;28;45456;-50
2022/05/30 14:35:04;;;;;;;;;2.25;2.25;;;;;25.84;28.38;100677.66;4962725;28;45342;-52
2022/05/30 14:37:32;;;;;;;;;3.00;2.75;;;;;25.98;29.14;100675.72;4960313;28;45331;-50
2022/05/30 14:40:09;;;;;;;;;3.75;3.00;;;;;26.05;28.90;100669.75;4951641;28;45557;-51
2022/05/30 14:42:42;;;;;;;;;2.00;1.25;;;;;26.08;29.02;100674.88;4962196;28;45425;-51
2022/05/30 14:45:12;;;;;;;;;1.00;1.00;;;;;26.09;28.95;100681.97;4962375;28;45290;-51
2022/05/30 14:47:41;;;;;;;;;0.75;0.75;;;;;26.07;28.43;100675.00;4960876;28;45469;-50
2022/05/30 14:50:09;;;;;;;;;2.50;2.00;;;;;26.05;28.27;100685.00;4962370;28;45593;-51
2022/05/30 14:52:40;;;;;;;;;1.00;1.00;;;;;26.01;28.51;100679.03;4961829;28;45442;-52
2022/05/30 14:55:15;;;;;;;;;4.00;3.00;;;;;26.05;28.89;100671.53;4962085;28;45254;-51
2022/05/30 14:57:45;;;;;;;;;2.75;2.75;;;;;26.28;28.51;100675.09;4958182;28;45420;-51
2022/05/30 15:00:39;;;;;;;;;2.00;2.00;;;;;26.52;28.19;100674.91;4961980;28;45470;-50
2022/05/30 15:05:51;;;;;;;;;2.00;2.00;;;;;26.90;28.69;100676.25;4961920;28;45448;-48
2022/05/30 15:08:16;;;;;;;;;4.75;4.00;;;;;27.08;29.16;100673.84;4962115;28;45395;-49
2022/05/30 15:10:42;;;;;;;;;3.75;3.00;;;;;27.22;28.56;100669.97;4961098;28;45290;-52
2022/05/30 15:13:07;;;;;;;;;4.00;3.00;;;;;27.37;28.50;100673.19;4961824;28;45303;-51
2022/05/30 15:15:34;;;;;;;;;7.50;5.25;;;;;27.52;28.53;100662.94;4961966;28;45422;-52
2022/05/30 15:17:59;;;;;;;;;6.50;5.75;;;;;27.68;28.39;100662.44;4960460;28;45313;-50
2022/05/30 15:20:25;;;;;;;;;4.25;4.00;;;;;27.93;29.23;100668.34;4961337;28;45346;-52
2022/05/30 15:22:52;;;;;;;;;5.00;5.00;;;;;28.15;28.63;100669.16;4961595;28;46326;-51
2022/05/30 15:25:18;;;;;;;;;5.25;5.00;;;;;28.38;29.21;100665.22;4961798;28;45212;-49
2022/05/30 15:27:44;;;;;;;;;6.00;5.50;;;;;28.57;28.34;100665.41;4961807;28;45353;-52
2022/05/30 15:30:10;;;;;;;;;5.75;5.75;;;;;28.73;28.56;100663.03;4976724;28;45553;-51
2022/05/30 15:32:35;;;;;;;;;5.00;4.00;;;;;28.89;28.53;100664.31;4976137;28;46500;-52
2022/05/30 15:35:01;;;;;;;;;5.00;5.00;;;;;28.98;28.55;100667.00;4961617;28;45276;-49
2022/05/30 15:37:28;;;;;;;;;5.00;5.00;;;;;29.04;28.53;100662.84;4959805;28;46297;-52
2022/05/30 15:39:53;;;;;;;;;3.75;3.75;;;;;29.02;28.29;100665.72;4950391;28;45313;-53
2022/05/30 15:42:22;;;;;;;;;5.75;4.50;;;;;29.08;28.08;100669.72;4961466;28;46060;-53
2022/05/30 15:44:49;;;;;;;;;5.50;4.50;;;;;29.05;28.30;100661.88;4961859;28;45285;-53
2022/05/30 15:47:15;;;;;;;;;5.00;5.00;;;;;29.09;28.08;100657.03;4961304;28;45330;-52
2022/05/30 15:49:44;;;;;;;;;4.75;4.75;;;;;29.10;27.88;100642.50;4961504;28;45318;-53
2022/05/30 15:57:17;;;;;;;;;5.00;5.00;;;;;29.17;28.01;100655.28;4961176;28;47109;-53
2022/05/30 15:58:08;;;;;;;;;4.50;4.50;;;;;29.29;27.79;100647.88;4958189;28;45354;-52
2022/05/30 16:00:34;;;;;;;;;4.00;4.00;;;;;29.41;27.87;100654.00;4961098;28;45753;-51
2022/05/30 16:03:00;;;;;;;;;3.75;3.75;;;;;29.47;27.72;100649.84;4959866;28;47198;-52
2022/05/30 16:05:25;;;;;;;;;5.00;5.00;;;;;29.54;27.39;100648.25;4960844;28;45373;-51
2022/05/30 16:07:55;;;;;;;;;5.00;4.25;;;;;29.61;27.67;100646.66;4961553;28;45223;-52
2022/05/30 16:10:23;;;;;;;;;3.75;3.75;;;;;29.65;27.40;100647.22;4961308;28;45624;-51
2022/05/30 16:12:53;;;;;;;;;6.00;4.50;;;;;29.73;27.12;100641.91;4975853;28;45456;-52
2022/05/30 16:15:20;;;;;;;;;4.00;3.00;;;;;29.77;27.54;100643.31;4961092;28;45250;-53
2022/05/30 16:17:46;;;;;;;;;4.50;4.25;;;;;29.80;26.98;100636.75;4959625;28;45341;-51
2022/05/30 16:20:13;;;;;;;;;3.00;2.50;;;;;29.87;27.35;100642.41;4961111;28;45310;-51
2022/05/30 16:22:43;;;;;;;;;5.00;4.00;;;;;29.92;26.92;100634.72;4960754;28;45581;-50
2022/05/30 16:25:15;;;;;;;;;3.00;3.00;;;;;29.95;27.01;100643.41;4959574;28;45352;-52
2022/05/30 16:27:43;;;;;;;;;5.00;3.25;;;;;29.98;26.78;100636.81;4960545;28;45416;-52
2022/05/30 16:30:09;;;;;;;;;4.00;4.00;;;;;29.95;27.11;100635.28;4960900;28;45214;-52
2022/05/30 16:32:37;;;;;;;;;3.00;3.00;;;;;29.91;26.93;100638.44;4957735;28;45390;-53
2022/05/30 16:35:03;;;;;;;;;3.75;3.75;;;;;29.82;26.70;100630.19;4975721;28;45337;-51
2022/05/30 16:37:30;;;;;;;;;5.50;4.25;;;;;29.74;26.95;100624.66;4958674;28;45433;-51
2022/05/30 16:39:55;;;;;;;;;4.50;4.25;;;;;29.66;26.58;100629.94;4948270;28;45521;-53
2022/05/30 16:42:21;;;;;;;;;4.25;4.00;;;;;29.49;27.13;100620.78;4959065;28;46574;-51
2022/05/30 16:44:47;;;;;;;;;4.00;3.25;;;;;29.34;26.56;100625.81;4960926;28;45327;-49
2022/05/30 16:47:12;;;;;;;;;3.75;3.75;;;;;29.21;26.66;100611.72;4959296;28;45292;-51
2022/05/30 16:49:39;;;;;;;;;3.25;3.00;;;;;29.09;26.61;100619.16;4960928;28;45244;-53
2022/05/30 16:52:07;;;;;;;;;1.00;1.00;;;;;28.97;26.58;100615.78;4975320;28;45572;-50
2022/05/30 16:54:32;;;;;;;;;3.00;3.00;;;;;28.80;26.42;100609.25;4960638;28;45409;-52
2022/05/30 16:56:59;;;;;;;;;3.25;3.25;;;;;28.77;26.46;100613.09;4956232;28;45544;-50
2022/05/30 16:59:26;;;;;;;;;2.00;2.00;;;;;28.70;26.48;100609.25;4960622;28;45519;-49
2022/05/30 17:01:52;;;;;;;;;3.00;3.00;;;;;28.67;26.25;100617.66;4960133;28;46300;-50
2022/05/30 17:04:17;;;;;;;;;2.75;2.75;;;;;28.60;26.44;100624.56;4960475;28;45228;-52